createdAt,value
2023-07-19T00:02:09.215Z,8.75
2023-07-19T00:07:03.509Z,8.30
2023-07-19T00:11:58.030Z,9.48
2023-07-19T00:16:53.715Z,10.43
2023-07-19T00:21:49.093Z,11.10
2023-07-19T00:26:43.317Z,10.75
2023-07-19T00:31:39.327Z,9.77
2023-07-19T00:36:34.431Z,10.45
2023-07-19T00:41:28.799Z,9.85
2023-07-19T00:46:23.193Z,9.75
2023-07-19T00:51:16.589Z,9.35
2023-07-19T00:56:10.252Z,9.68
2023-07-19T01:01:04.204Z,8.77
2023-07-19T01:06:01.333Z,9.98
2023-07-19T01:10:56.542Z,11.07
2023-07-19T01:15:49.861Z,10.52
2023-07-19T01:20:44.197Z,10.35
2023-07-19T01:25:39.013Z,11.80
2023-07-19T01:30:33.190Z,11.05
2023-07-19T01:35:27.035Z,10.85
2023-07-19T01:40:20.649Z,10.90
2023-07-19T01:45:14.127Z,10.30
2023-07-19T01:50:08.660Z,10.35
2023-07-19T01:55:01.667Z,10.52
2023-07-19T01:59:59.270Z,10.40
2023-07-19T02:04:54.273Z,10.85
2023-07-19T02:09:49.149Z,10.45
2023-07-19T02:14:43.448Z,10.43
2023-07-19T02:19:37.628Z,10.70
2023-07-19T02:24:31.438Z,10.57
2023-07-19T02:29:25.932Z,10.95
2023-07-19T02:34:20.684Z,10.82
2023-07-19T02:39:14.759Z,9.20
2023-07-19T02:44:14.028Z,8.50
2023-07-19T02:49:08.253Z,9.10
2023-07-19T02:54:02.065Z,9.30
2023-07-19T02:58:56.391Z,8.13
2023-07-19T03:03:51.310Z,7.82
2023-07-19T03:08:45.853Z,8.88
2023-07-19T03:13:39.689Z,8.65
2023-07-19T03:18:33.160Z,9.15
2023-07-19T03:23:27.646Z,8.70
2023-07-19T03:28:22.786Z,9.65
2023-07-19T03:33:18.520Z,9.20
2023-07-19T03:38:13.149Z,8.93
2023-07-19T03:43:07.422Z,9.32
2023-07-19T03:48:01.175Z,8.90
2023-07-19T03:52:55.964Z,9.20
2023-07-19T03:57:49.523Z,9.07
2023-07-19T04:02:45.313Z,9.93
2023-07-19T04:07:44.776Z,9.65
2023-07-19T04:12:38.666Z,10.18
2023-07-19T04:17:34.020Z,9.55
2023-07-19T04:22:28.295Z,9.25
2023-07-19T04:27:22.959Z,9.40
2023-07-19T04:32:18.283Z,9.73
2023-07-19T04:37:12.228Z,10.02
2023-07-19T04:42:07.140Z,9.70
2023-07-19T04:47:01.590Z,9.48
2023-07-19T04:51:55.946Z,9.77
2023-07-19T04:56:51.346Z,9.90
2023-07-19T05:01:45.655Z,9.73
2023-07-19T05:06:39.457Z,9.55
2023-07-19T05:11:34.428Z,10.20
2023-07-19T05:16:28.225Z,10.65
2023-07-19T05:21:22.812Z,9.25
2023-07-19T05:26:17.303Z,9.00
2023-07-19T05:31:12.772Z,9.52
2023-07-19T05:36:08.834Z,9.98
2023-07-19T05:41:06.315Z,8.90
2023-07-19T05:46:07.578Z,8.13
2023-07-19T05:55:56.606Z,9.00
2023-07-19T06:00:51.217Z,8.48
2023-07-19T06:05:46.811Z,8.73
2023-07-19T06:10:41.448Z,8.00
2023-07-19T06:15:35.560Z,8.43
2023-07-19T06:20:30.072Z,9.02
2023-07-19T06:25:25.845Z,7.43
2023-07-19T06:30:20.167Z,8.23
2023-07-19T06:35:14.684Z,8.73
2023-07-19T06:40:16.763Z,8.98
2023-07-19T06:45:12.409Z,8.35
2023-07-19T06:50:09.023Z,8.02
2023-07-19T06:55:03.158Z,8.00
2023-07-19T06:59:58.036Z,8.23
2023-07-19T07:04:53.665Z,7.88
2023-07-19T07:09:48.440Z,7.60
2023-07-19T07:14:42.347Z,7.93
2023-07-19T07:19:37.494Z,7.47
2023-07-19T07:24:31.990Z,7.78
2023-07-19T07:29:26.165Z,8.70
2023-07-19T07:34:22.454Z,8.85
2023-07-19T07:39:17.844Z,8.63
2023-07-19T07:44:13.652Z,7.93
2023-07-19T07:49:11.772Z,8.82
2023-07-19T07:54:05.916Z,8.35
2023-07-19T07:59:00.309Z,8.52
2023-07-19T08:03:54.810Z,9.00
2023-07-19T08:08:48.654Z,7.82
2023-07-19T08:13:42.411Z,8.70
2023-07-19T08:18:36.930Z,8.48
2023-07-19T08:23:31.680Z,9.25
2023-07-19T08:28:45.751Z,8.13
2023-07-19T08:33:39.472Z,8.38
2023-07-19T08:38:33.808Z,8.48
2023-07-19T08:43:29.178Z,7.93
2023-07-19T08:48:23.799Z,8.50
2023-07-19T08:53:18.057Z,7.90
2023-07-19T08:58:12.301Z,8.45
2023-07-19T09:03:06.553Z,8.18
2023-07-19T09:08:04.291Z,6.90
2023-07-19T09:13:04.853Z,7.82
2023-07-19T09:17:58.938Z,7.72
2023-07-19T09:22:52.656Z,7.38
2023-07-19T09:27:46.713Z,8.05
2023-07-19T09:32:41.509Z,9.25
2023-07-19T09:37:35.651Z,9.23
2023-07-19T09:42:34.308Z,9.32
2023-07-19T09:47:29.953Z,9.10
2023-07-19T09:52:27.315Z,8.80
2023-07-19T09:57:23.574Z,8.70
2023-07-19T10:02:17.517Z,8.57
2023-07-19T10:07:20.746Z,8.38
2023-07-19T10:12:19.799Z,8.13
2023-07-19T10:17:13.845Z,7.47
2023-07-19T10:22:09.706Z,8.05
2023-07-19T10:27:11.578Z,7.35
2023-07-19T10:32:05.980Z,8.52
2023-07-19T10:37:04.807Z,8.95
2023-07-19T10:42:00.949Z,8.43
2023-07-19T10:46:56.493Z,7.85
2023-07-19T10:51:57.884Z,8.38
2023-07-19T10:56:51.672Z,8.88
2023-07-19T11:01:48.884Z,7.60
2023-07-19T11:07:14.752Z,8.30
2023-07-19T11:12:09.222Z,7.60
2023-07-19T11:17:03.232Z,8.80
2023-07-19T11:21:57.415Z,8.45
2023-07-19T11:26:54.242Z,7.63
2023-07-19T11:31:48.235Z,7.90
2023-07-19T11:36:44.624Z,7.78
2023-07-19T11:41:38.762Z,7.68
2023-07-19T11:46:32.665Z,8.27
2023-07-19T11:51:28.126Z,9.38
2023-07-19T11:56:22.339Z,9.70
2023-07-19T12:01:17.616Z,9.98
2023-07-19T12:06:12.599Z,11.00
2023-07-19T12:11:08.072Z,10.00
2023-07-19T12:16:03.349Z,9.88
2023-07-19T12:20:57.191Z,10.25
2023-07-19T12:25:51.046Z,10.10
2023-07-19T12:30:46.068Z,10.35
2023-07-19T12:35:40.259Z,10.98
2023-07-19T12:40:35.725Z,9.80
2023-07-19T12:45:29.582Z,8.93
2023-07-19T12:50:24.107Z,8.90
2023-07-19T12:55:18.443Z,9.38
2023-07-19T13:00:16.700Z,9.75
2023-07-19T13:05:10.897Z,9.70
2023-07-19T13:10:05.221Z,10.57
2023-07-19T13:14:59.477Z,10.10
2023-07-19T13:19:53.689Z,9.63
2023-07-19T13:24:47.785Z,10.35
2023-07-19T13:29:41.873Z,11.77
2023-07-19T13:34:36.087Z,10.05
2023-07-19T13:39:30.138Z,10.00
2023-07-19T13:44:24.583Z,9.68
2023-07-19T13:49:20.335Z,10.25
2023-07-19T13:54:15.128Z,9.73
2023-07-19T13:59:10.178Z,9.75
2023-07-19T14:04:05.563Z,10.02
2023-07-19T14:08:59.938Z,10.18
2023-07-19T14:13:56.256Z,10.55
2023-07-19T14:18:51.283Z,11.02
2023-07-19T14:23:44.716Z,10.10
2023-07-19T14:28:38.736Z,10.30
2023-07-19T14:33:34.054Z,11.32
2023-07-19T14:38:29.530Z,10.52
2023-07-19T14:43:25.076Z,9.60
2023-07-19T14:48:19.363Z,10.45
2023-07-19T14:53:13.556Z,10.45
2023-07-19T14:58:09.305Z,10.23
2023-07-19T15:03:05.247Z,9.43
2023-07-19T15:07:59.250Z,9.82
2023-07-19T15:12:54.175Z,9.35
2023-07-19T15:17:48.931Z,8.80
2023-07-19T15:22:45.140Z,9.32
2023-07-19T15:27:39.734Z,10.18
2023-07-19T15:32:33.901Z,9.52
2023-07-19T15:37:29.811Z,8.50
2023-07-19T15:42:26.789Z,8.82
2023-07-19T15:47:21.112Z,9.02
2023-07-19T15:52:16.282Z,9.13
2023-07-19T15:57:10.928Z,9.20
2023-07-19T16:02:06.284Z,8.40
2023-07-19T16:07:00.855Z,8.60
2023-07-19T16:11:56.297Z,8.77
2023-07-19T16:16:50.644Z,8.07
2023-07-19T16:21:45.472Z,6.63
2023-07-19T16:26:40.308Z,5.38
2023-07-19T16:31:34.796Z,5.70
2023-07-19T16:36:28.738Z,5.70
2023-07-19T16:41:24.170Z,6.22
2023-07-19T16:46:18.602Z,5.63
2023-07-19T16:51:13.082Z,5.72
2023-07-19T16:56:08.242Z,5.57
2023-07-19T17:01:02.910Z,5.38
2023-07-19T17:05:57.640Z,5.93
2023-07-19T17:10:53.349Z,5.55
2023-07-19T17:15:49.801Z,5.85
2023-07-19T17:20:44.351Z,5.55
2023-07-19T17:25:40.022Z,5.55
2023-07-19T17:30:34.825Z,5.35
2023-07-19T17:35:29.914Z,5.47
2023-07-19T17:40:25.770Z,5.32
2023-07-19T17:45:19.886Z,5.45
2023-07-19T17:50:14.279Z,5.35
2023-07-19T17:55:11.556Z,5.70
2023-07-19T18:00:12.174Z,5.45
2023-07-19T18:05:07.787Z,5.40
2023-07-19T18:10:02.182Z,5.45
2023-07-19T18:14:56.732Z,4.90
2023-07-19T18:19:51.280Z,5.10
2023-07-19T18:24:46.059Z,12.45
2023-07-19T18:29:41.534Z,5.57
2023-07-19T18:34:39.648Z,6.85
2023-07-19T18:39:33.338Z,6.20
2023-07-19T18:44:28.698Z,6.20
2023-07-19T18:49:22.498Z,6.10
2023-07-19T18:54:16.718Z,5.40
2023-07-19T18:59:10.799Z,6.13
2023-07-19T19:04:05.085Z,5.78
2023-07-19T19:09:12.275Z,6.47
2023-07-19T19:14:05.749Z,5.38
2023-07-19T19:19:00.707Z,5.90
2023-07-19T19:23:54.859Z,6.38
2023-07-19T19:28:49.315Z,5.70
2023-07-19T19:33:44.551Z,5.63
2023-07-19T19:38:38.449Z,6.00
2023-07-19T19:43:31.920Z,5.70
2023-07-19T19:48:25.769Z,5.15
2023-07-19T19:53:21.201Z,5.72
2023-07-19T19:58:16.678Z,5.38
2023-07-19T20:08:25.219Z,5.47
2023-07-19T20:13:19.755Z,6.05
2023-07-19T20:23:13.416Z,7.53
2023-07-19T20:28:07.019Z,5.93
2023-07-19T20:33:01.452Z,6.45
2023-07-19T20:38:42.162Z,6.03
2023-07-19T20:43:10.490Z,6.18
2023-07-19T20:48:05.444Z,6.28
2023-07-19T20:53:03.657Z,6.30
2023-07-19T20:57:57.648Z,6.07
2023-07-19T21:02:53.147Z,7.47
2023-07-19T21:07:47.231Z,6.97
2023-07-19T21:12:41.917Z,7.30
2023-07-19T21:17:37.135Z,6.68
2023-07-19T21:22:31.611Z,7.15
2023-07-19T21:27:26.466Z,7.13
2023-07-19T21:32:23.185Z,7.78
2023-07-19T21:37:20.917Z,8.35
2023-07-19T21:42:16.807Z,6.10
2023-07-19T21:47:10.229Z,7.68
2023-07-19T21:52:03.986Z,6.47
2023-07-19T21:56:58.065Z,6.45
2023-07-19T22:01:53.735Z,6.82
2023-07-19T22:06:48.702Z,7.07
2023-07-19T22:11:42.442Z,6.93
2023-07-19T22:16:39.224Z,6.18
2023-07-19T22:21:33.867Z,4.72
2023-07-19T22:26:29.851Z,5.13
2023-07-19T22:31:24.570Z,3.92
2023-07-19T22:36:19.216Z,4.75
2023-07-19T22:41:17.037Z,4.60
2023-07-19T22:46:12.676Z,5.85
2023-07-19T22:51:06.595Z,5.00
2023-07-19T22:56:03.353Z,5.30
2023-07-19T23:00:57.722Z,5.75
2023-07-19T23:05:54.021Z,4.90
2023-07-19T23:10:50.113Z,4.63
2023-07-19T23:15:44.847Z,5.05
2023-07-19T23:20:43.170Z,4.72
2023-07-19T23:25:38.163Z,5.10
2023-07-19T23:30:34.865Z,4.25
2023-07-19T23:35:29.878Z,5.18
2023-07-19T23:40:24.484Z,4.68
2023-07-19T23:45:27.976Z,5.65
2023-07-19T23:50:36.850Z,4.20
2023-07-19T23:55:40.961Z,5.65
